Time;durP1;ratioP1;P1;durP2;ratioP2;P2;SDS_P1;SDS_P2;PMS_P1;PMS_P2;Temp;Humidity;BMP_temperature;BMP_pressure;BME280_temperature;BME280_humidity;BME280_pressure;Samples;Min_cycle;Max_cycle;Signal;HPM_P1;HPM_P2
2021/05/05 00:02:21;;;;;;;2.53;1.50;;;23.90;34.20;;;;;;5014031;28;20405;-59
2021/05/05 00:04:47;;;;;;;2.17;1.37;;;23.90;34.20;;;;;;5013674;28;20385;-59
2021/05/05 00:07:12;;;;;;;1.65;1.17;;;23.90;34.20;;;;;;5011783;28;20420;-58
2021/05/05 00:09:38;;;;;;;2.03;1.30;;;23.90;34.10;;;;;;5013675;28;20471;-58
2021/05/05 00:12:04;;;;;;;1.80;1.23;;;23.90;34.10;;;;;;5013428;28;20420;-58
2021/05/05 00:14:30;;;;;;;2.10;1.42;;;23.90;34.10;;;;;;5013518;28;20400;-58
2021/05/05 00:16:55;;;;;;;2.00;1.40;;;23.90;34.10;;;;;;5013092;28;20780;-59
2021/05/05 00:19:21;;;;;;;1.70;1.30;;;23.90;34.20;;;;;;5013500;28;20400;-58
2021/05/05 00:21:47;;;;;;;1.80;1.20;;;23.90;34.30;;;;;;5013307;28;20396;-58
2021/05/05 00:24:14;;;;;;;2.22;1.50;;;23.90;34.20;;;;;;5013380;28;20480;-58
2021/05/05 00:26:39;;;;;;;1.73;1.37;;;23.90;34.20;;;;;;5013294;28;20478;-58
2021/05/05 00:29:05;;;;;;;1.90;1.30;;;23.90;34.30;;;;;;5011561;28;20451;-58
2021/05/05 00:31:32;;;;;;;2.10;1.40;;;23.90;34.30;;;;;;5012968;28;20408;-59
2021/05/05 00:33:58;;;;;;;2.08;1.30;;;23.90;34.30;;;;;;5012869;28;20404;-58
2021/05/05 00:36:24;;;;;;;2.17;1.40;;;23.80;34.20;;;;;;5013127;28;20389;-58
2021/05/05 00:38:49;;;;;;;1.80;1.20;;;23.80;34.20;;;;;;5013302;28;20393;-58
2021/05/05 00:41:17;;;;;;;1.80;1.48;;;23.80;34.20;;;;;;5012504;28;20869;-58
2021/05/05 00:43:43;;;;;;;1.88;1.25;;;23.80;34.20;;;;;;5012977;28;20409;-59
2021/05/05 00:46:09;;;;;;;2.20;1.40;;;23.90;34.20;;;;;;5012988;28;20384;-58
2021/05/05 00:48:35;;;;;;;2.17;1.50;;;23.80;34.10;;;;;;5012883;28;20401;-58
2021/05/05 00:51:02;;;;;;;1.92;1.40;;;23.80;34.20;;;;;;5012367;28;20385;-58
2021/05/05 00:53:29;;;;;;;1.75;1.20;;;23.80;34.20;;;;;;5012736;28;20448;-58
2021/05/05 00:55:54;;;;;;;1.50;1.10;;;23.80;34.20;;;;;;5013041;28;20855;-58
2021/05/05 00:58:20;;;;;;;1.80;1.20;;;23.80;34.10;;;;;;5012806;28;20484;-58
2021/05/05 01:00:49;;;;;;;2.13;1.40;;;23.80;34.10;;;;;;5012620;28;20443;-58
2021/05/05 01:03:14;;;;;;;1.88;1.27;;;23.80;34.10;;;;;;5012027;28;20385;-58
2021/05/05 01:05:40;;;;;;;1.67;1.20;;;23.80;34.00;;;;;;5011809;28;20439;-59
2021/05/05 01:08:07;;;;;;;1.70;1.10;;;23.90;34.10;;;;;;5012447;28;20403;-58
2021/05/05 01:10:33;;;;;;;2.00;1.30;;;23.80;34.00;;;;;;5012504;28;20765;-59
2021/05/05 01:13:00;;;;;;;1.55;1.20;;;23.80;34.00;;;;;;5011914;28;20474;-59
2021/05/05 01:15:26;;;;;;;1.60;1.02;;;23.90;34.10;;;;;;5010865;28;20393;-60
2021/05/05 01:17:51;;;;;;;1.75;1.27;;;23.80;34.00;;;;;;5012485;28;20392;-65
2021/05/05 01:20:17;;;;;;;1.70;1.30;;;23.80;34.00;;;;;;5012368;28;20439;-59
2021/05/05 01:22:43;;;;;;;1.77;1.10;;;23.80;34.10;;;;;;5012263;28;20481;-58
2021/05/05 01:25:12;;;;;;;1.40;1.00;;;23.80;34.10;;;;;;5011778;28;20381;-58
2021/05/05 01:27:40;;;;;;;1.70;1.20;;;23.80;34.00;;;;;;5012232;28;20451;-59
2021/05/05 01:30:07;;;;;;;1.60;1.10;;;23.80;34.10;;;;;;5012279;28;20853;-59
2021/05/05 01:32:33;;;;;;;1.73;1.30;;;23.80;34.10;;;;;;5012072;28;20417;-59
2021/05/05 01:34:59;;;;;;;1.40;1.10;;;23.80;34.10;;;;;;5011240;28;20406;-60
2021/05/05 01:37:24;;;;;;;1.67;1.15;;;23.80;34.10;;;;;;5012010;28;20408;-58
2021/05/05 01:39:50;;;;;;;1.40;1.10;;;23.80;34.00;;;;;;5012061;28;20389;-59
2021/05/05 01:42:16;;;;;;;1.63;1.20;;;23.80;34.00;;;;;;5012094;28;20396;-59
2021/05/05 01:44:41;;;;;;;1.53;1.10;;;23.80;34.10;;;;;;5011975;28;20396;-59
2021/05/05 01:47:10;;;;;;;1.60;1.10;;;23.70;34.10;;;;;;5010372;28;20438;-58
2021/05/05 01:49:44;;;;;;;1.55;1.00;;;23.70;34.10;;;;;;5011975;28;20456;-58
2021/05/05 01:52:10;;;;;;;1.65;1.10;;;23.70;34.10;;;;;;5011890;28;20428;-59
2021/05/05 01:54:36;;;;;;;1.77;1.00;;;23.70;34.80;;;;;;5011858;28;20527;-59
2021/05/05 01:57:37;;;;;;;1.70;1.30;;;23.70;34.10;;;;;;5011488;28;20479;-58
2021/05/05 02:00:10;;;;;;;1.40;1.02;;;23.70;34.10;;;;;;4969967;28;20404;-58
2021/05/05 02:02:35;;;;;;;1.60;1.07;;;23.70;34.10;;;;;;5011790;28;20424;-58
2021/05/05 02:05:03;;;;;;;1.73;1.10;;;23.70;34.00;;;;;;5011809;28;20416;-58
2021/05/05 02:07:28;;;;;;;1.70;1.20;;;23.70;34.00;;;;;;5011597;28;20435;-59
2021/05/05 02:09:54;;;;;;;1.67;1.17;;;23.70;34.10;;;;;;5011789;28;20861;-58
2021/05/05 02:12:21;;;;;;;1.65;1.10;;;23.70;34.00;;;;;;5011603;28;20428;-58
2021/05/05 02:14:47;;;;;;;1.40;0.93;;;23.70;34.00;;;;;;5011668;28;20845;-58
2021/05/05 02:17:14;;;;;;;1.75;1.10;;;23.70;34.00;;;;;;5011308;28;20443;-58
2021/05/05 02:19:40;;;;;;;1.58;1.10;;;23.70;34.00;;;;;;5011378;28;20389;-58
2021/05/05 02:22:06;;;;;;;1.83;1.00;;;23.70;34.00;;;;;;5009808;28;20401;-58
2021/05/05 02:24:32;;;;;;;1.40;1.00;;;23.70;34.00;;;;;;5011422;28;20407;-58
2021/05/05 02:26:57;;;;;;;1.58;0.93;;;23.70;34.00;;;;;;5011362;28;20384;-58
2021/05/05 02:29:23;;;;;;;1.57;1.07;;;23.70;34.00;;;;;;5011435;28;20889;-58
2021/05/05 02:31:50;;;;;;;1.73;1.30;;;23.70;34.00;;;;;;5011391;28;20523;-58
2021/05/05 02:34:16;;;;;;;1.80;1.10;;;23.70;34.00;;;;;;5011403;28;20392;-58
2021/05/05 02:36:42;;;;;;;1.50;1.03;;;23.70;34.00;;;;;;5011304;28;21016;-58
2021/05/05 02:39:09;;;;;;;1.30;0.90;;;23.70;34.00;;;;;;5011099;28;20475;-58
2021/05/05 02:41:37;;;;;;;1.55;1.20;;;23.70;34.00;;;;;;5011329;28;20385;-59
2021/05/05 02:44:04;;;;;;;1.52;1.08;;;23.70;34.00;;;;;;5011501;28;21063;-59
2021/05/05 02:46:29;;;;;;;1.60;1.20;;;23.60;34.00;;;;;;5011870;28;20440;-59
2021/05/05 02:48:55;;;;;;;1.25;1.10;;;23.70;34.00;;;;;;5015313;28;20485;-59
2021/05/05 02:51:21;;;;;;;1.40;1.10;;;23.70;34.00;;;;;;5014543;28;20396;-59
2021/05/05 02:53:46;;;;;;;1.42;1.00;;;23.60;34.00;;;;;;5015102;28;20377;-60
2021/05/05 02:56:12;;;;;;;1.70;1.00;;;23.60;34.00;;;;;;5014840;28;20408;-58
2021/05/05 02:58:37;;;;;;;1.50;1.00;;;23.60;34.00;;;;;;5014984;28;20955;-59
2021/05/05 03:01:03;;;;;;;1.13;0.80;;;23.60;34.10;;;;;;5014748;28;20404;-58
2021/05/05 03:03:29;;;;;;;1.70;1.05;;;23.60;34.10;;;;;;5014679;28;20470;-58
2021/05/05 03:05:54;;;;;;;1.30;0.97;;;23.60;34.00;;;;;;5014614;28;20504;-59
2021/05/05 03:08:20;;;;;;;1.60;1.10;;;23.60;34.00;;;;;;5014984;28;20884;-59
2021/05/05 03:10:47;;;;;;;1.20;0.90;;;23.60;34.10;;;;;;5013424;28;20761;-59
2021/05/05 03:13:13;;;;;;;1.50;0.90;;;23.60;34.10;;;;;;5013001;28;20432;-58
2021/05/05 03:15:39;;;;;;;1.60;0.95;;;23.60;34.00;;;;;;5014724;28;20404;-59
2021/05/05 03:18:05;;;;;;;1.58;1.00;;;23.60;34.00;;;;;;5014671;28;20439;-58
2021/05/05 03:20:31;;;;;;;1.30;0.82;;;23.60;34.00;;;;;;5014603;28;20811;-59
2021/05/05 03:22:57;;;;;;;1.33;1.00;;;23.60;34.00;;;;;;5013269;28;20501;-58
2021/05/05 03:25:23;;;;;;;1.70;1.10;;;23.60;34.00;;;;;;5014117;28;20874;-58
2021/05/05 03:27:49;;;;;;;1.45;0.90;;;23.60;34.00;;;;;;5014500;28;20861;-58
2021/05/05 03:30:16;;;;;;;1.40;0.90;;;23.60;34.00;;;;;;5014428;28;20451;-59
2021/05/05 03:32:41;;;;;;;1.80;1.00;;;23.60;34.00;;;;;;5014187;28;20490;-59
2021/05/05 03:35:08;;;;;;;1.30;0.90;;;23.60;34.10;;;;;;5013756;28;20454;-58
2021/05/05 03:37:35;;;;;;;1.63;1.00;;;23.50;34.60;;;;;;5013848;28;20401;-58
2021/05/05 03:40:01;;;;;;;1.60;0.90;;;23.60;34.10;;;;;;5014137;28;20507;-58
2021/05/05 03:42:27;;;;;;;1.35;0.90;;;23.60;34.10;;;;;;5014232;28;20484;-64
2021/05/05 03:44:52;;;;;;;1.50;0.90;;;23.60;34.10;;;;;;5014260;28;20479;-63
2021/05/05 03:47:18;;;;;;;1.37;0.90;;;23.60;34.10;;;;;;5013540;28;20400;-58
2021/05/05 03:49:44;;;;;;;1.20;0.90;;;23.60;34.10;;;;;;5014047;28;20435;-58
2021/05/05 03:52:09;;;;;;;1.50;1.00;;;23.60;34.10;;;;;;5014009;28;20773;-58
2021/05/05 03:54:35;;;;;;;1.30;0.85;;;23.50;34.00;;;;;;5013908;28;20439;-58
2021/05/05 03:57:00;;;;;;;1.33;1.00;;;23.50;34.00;;;;;;5013818;28;20417;-58
2021/05/05 03:59:26;;;;;;;1.73;1.20;;;23.50;34.70;;;;;;5013253;28;20392;-58
2021/05/05 04:01:52;;;;;;;1.60;0.95;;;23.50;34.10;;;;;;5013895;28;20385;-58
2021/05/05 04:04:17;;;;;;;2.03;1.40;;;23.50;34.10;;;;;;5013836;28;20393;-58
2021/05/05 04:06:43;;;;;;;1.80;1.15;;;23.50;34.10;;;;;;5013495;28;20427;-57
2021/05/05 04:09:10;;;;;;;2.40;1.50;;;23.50;34.10;;;;;;5013516;28;20437;-58
2021/05/05 04:11:36;;;;;;;2.35;1.45;;;23.40;34.40;;;;;;5013544;28;20380;-58
2021/05/05 04:14:03;;;;;;;2.20;1.50;;;23.50;34.50;;;;;;5013686;28;20581;-58
2021/05/05 04:16:28;;;;;;;3.60;1.65;;;23.40;34.40;;;;;;5013525;28;20389;-59
2021/05/05 04:18:54;;;;;;;2.90;1.40;;;23.40;34.70;;;;;;5013611;28;20408;-58
2021/05/05 04:21:21;;;;;;;2.88;1.70;;;23.30;34.90;;;;;;5011741;28;20412;-58
2021/05/05 04:23:48;;;;;;;3.33;1.50;;;23.30;34.90;;;;;;5013693;28;20417;-59
2021/05/05 04:26:13;;;;;;;2.72;1.80;;;23.30;34.90;;;;;;5013376;28;20495;-59
2021/05/05 04:28:39;;;;;;;2.40;1.50;;;23.30;35.10;;;;;;5012116;28;20980;-59
2021/05/05 04:31:05;;;;;;;2.63;1.58;;;23.20;35.10;;;;;;5014816;28;20401;-58
2021/05/05 04:33:31;;;;;;;3.28;1.70;;;23.20;35.20;;;;;;5025195;28;20449;-62
2021/05/05 04:35:56;;;;;;;2.27;1.37;;;23.20;35.30;;;;;;5023145;28;20779;-58
2021/05/05 04:38:22;;;;;;;2.42;1.60;;;23.20;35.80;;;;;;5023003;28;20395;-59
2021/05/05 04:40:48;;;;;;;2.83;1.50;;;23.20;35.50;;;;;;5024334;28;20380;-60
2021/05/05 04:43:14;;;;;;;2.38;1.48;;;23.20;35.50;;;;;;5021435;28;20424;-58
2021/05/05 04:45:40;;;;;;;2.58;1.55;;;23.10;35.70;;;;;;5022403;28;20387;-58
2021/05/05 04:48:06;;;;;;;2.75;1.60;;;23.20;35.80;;;;;;5023339;28;20800;-59
2021/05/05 04:50:31;;;;;;;2.47;1.80;;;23.10;35.70;;;;;;5021620;28;20451;-59
2021/05/05 04:52:57;;;;;;;2.40;1.50;;;23.10;35.80;;;;;;5029428;28;20422;-59
2021/05/05 04:55:23;;;;;;;3.90;1.50;;;23.10;35.80;;;;;;5031883;28;20390;-58
2021/05/05 04:57:49;;;;;;;3.58;1.48;;;23.10;36.20;;;;;;5032556;28;20422;-58
2021/05/05 05:00:15;;;;;;;2.17;1.40;;;23.10;36.00;;;;;;5025024;28;20879;-59
2021/05/05 05:02:41;;;;;;;3.92;1.55;;;23.10;36.20;;;;;;5024526;28;20401;-58
2021/05/05 05:05:07;;;;;;;3.03;1.42;;;23.00;36.20;;;;;;5011151;28;20397;-58
2021/05/05 05:07:35;;;;;;;3.47;1.50;;;23.00;36.20;;;;;;5009872;28;20432;-59
2021/05/05 05:10:01;;;;;;;4.88;1.58;;;23.00;36.20;;;;;;5011473;28;20407;-58
2021/05/05 05:12:27;;;;;;;2.95;1.50;;;23.00;36.30;;;;;;5012087;28;20508;-58
2021/05/05 05:14:53;;;;;;;2.53;1.52;;;23.00;36.20;;;;;;5010957;28;20967;-58
2021/05/05 05:17:19;;;;;;;3.33;1.48;;;23.00;36.00;;;;;;5011900;28;20420;-58
2021/05/05 05:19:45;;;;;;;4.43;1.60;;;23.10;36.30;;;;;;5012179;28;20745;-59
2021/05/05 05:22:11;;;;;;;4.57;1.70;;;23.00;36.20;;;;;;5011103;28;20393;-58
2021/05/05 05:24:37;;;;;;;4.70;1.67;;;23.00;36.40;;;;;;5012245;28;20396;-58
2021/05/05 05:27:03;;;;;;;4.93;1.70;;;23.00;36.40;;;;;;5012240;28;20964;-58
2021/05/05 05:29:28;;;;;;;4.25;1.67;;;23.00;36.90;;;;;;5011562;28;20714;-58
2021/05/05 05:31:54;;;;;;;2.90;1.60;;;23.00;36.30;;;;;;5012102;28;20408;-58
2021/05/05 05:34:19;;;;;;;5.35;1.95;;;23.10;36.30;;;;;;5012093;28;20488;-58
2021/05/05 05:36:45;;;;;;;3.90;1.80;;;23.10;36.30;;;;;;5012070;28;20392;-58
2021/05/05 05:39:11;;;;;;;3.25;1.60;;;23.10;36.40;;;;;;5010240;28;20884;-58
2021/05/05 05:41:37;;;;;;;4.70;1.57;;;23.00;36.30;;;;;;5011431;28;20911;-59
2021/05/05 05:44:03;;;;;;;3.30;1.75;;;23.00;36.30;;;;;;5011946;28;20391;-60
2021/05/05 05:46:29;;;;;;;6.67;1.60;;;23.00;36.50;;;;;;5011851;28;20399;-58
2021/05/05 05:48:54;;;;;;;5.18;1.90;;;23.00;36.70;;;;;;5011844;28;20479;-58
2021/05/05 05:51:20;;;;;;;3.37;1.60;;;23.00;36.50;;;;;;5011362;28;20399;-58
2021/05/05 05:53:46;;;;;;;3.13;1.50;;;23.00;36.80;;;;;;5010163;28;20516;-58
2021/05/05 05:56:12;;;;;;;4.20;1.80;;;22.90;36.70;;;;;;5010737;28;20915;-58
2021/05/05 05:58:37;;;;;;;3.70;1.50;;;23.00;36.90;;;;;;5011750;28;20389;-58
2021/05/05 06:01:04;;;;;;;2.20;1.45;;;23.00;36.80;;;;;;5011737;28;20393;-59
2021/05/05 06:03:30;;;;;;;3.40;1.70;;;23.00;36.70;;;;;;5011235;28;20389;-58
2021/05/05 06:05:55;;;;;;;3.78;1.45;;;23.00;36.70;;;;;;5011265;28;20401;-58
2021/05/05 06:08:22;;;;;;;2.80;1.60;;;23.00;36.70;;;;;;5011549;28;20415;-59
2021/05/05 06:10:48;;;;;;;2.80;1.60;;;23.00;36.60;;;;;;5011626;28;20396;-59
2021/05/05 06:13:14;;;;;;;3.67;1.48;;;23.10;36.70;;;;;;5011212;28;21151;-59
2021/05/05 06:15:41;;;;;;;2.90;1.50;;;23.10;36.60;;;;;;5011176;28;20476;-59
2021/05/05 06:18:07;;;;;;;2.50;1.50;;;23.10;36.60;;;;;;5011812;28;20400;-58
2021/05/05 06:20:33;;;;;;;2.10;1.45;;;23.10;36.70;;;;;;5012234;28;20453;-59
2021/05/05 06:22:59;;;;;;;2.33;1.67;;;23.10;36.70;;;;;;5015684;28;20404;-59
2021/05/05 06:25:25;;;;;;;2.70;1.63;;;23.10;36.50;;;;;;5014513;28;20399;-59
2021/05/05 06:27:50;;;;;;;2.10;1.50;;;23.10;36.40;;;;;;5015142;28;20408;-59
2021/05/05 06:30:16;;;;;;;2.78;1.50;;;23.10;36.50;;;;;;5015269;28;20464;-59
2021/05/05 06:32:42;;;;;;;2.20;1.60;;;23.10;36.40;;;;;;5014296;28;21077;-59
2021/05/05 06:35:08;;;;;;;3.00;1.77;;;23.10;36.40;;;;;;5014620;28;20389;-59
2021/05/05 06:37:35;;;;;;;3.72;1.58;;;23.10;36.30;;;;;;5014446;28;20396;-59
2021/05/05 06:40:01;;;;;;;3.65;1.30;;;23.20;36.30;;;;;;5015228;28;20939;-59
2021/05/05 06:42:30;;;;;;;3.90;1.60;;;23.20;36.50;;;;;;5014752;28;20412;-59
2021/05/05 06:44:56;;;;;;;3.05;1.50;;;23.10;36.40;;;;;;5015210;28;20408;-58
2021/05/05 06:47:22;;;;;;;4.28;1.63;;;23.10;36.50;;;;;;5014613;28;20400;-59
2021/05/05 06:49:48;;;;;;;3.97;1.40;;;23.20;36.60;;;;;;5014678;28;20385;-58
2021/05/05 06:52:14;;;;;;;2.58;1.48;;;23.20;36.70;;;;;;5014641;28;20487;-58
2021/05/05 06:54:40;;;;;;;3.17;1.67;;;23.20;36.60;;;;;;5014838;28;20479;-60
2021/05/05 06:57:07;;;;;;;2.75;1.45;;;23.20;36.50;;;;;;5014870;28;20854;-58
2021/05/05 06:59:33;;;;;;;5.40;1.77;;;23.20;37.00;;;;;;5012869;28;20764;-58
2021/05/05 07:01:58;;;;;;;4.80;1.63;;;23.10;36.90;;;;;;5014363;28;20389;-59
2021/05/05 07:04:24;;;;;;;4.10;1.50;;;23.20;37.00;;;;;;5014871;28;20911;-58
2021/05/05 07:06:49;;;;;;;4.28;1.50;;;23.20;36.80;;;;;;5014745;28;20820;-58
2021/05/05 07:09:15;;;;;;;2.73;1.30;;;23.20;36.70;;;;;;5014641;28;20478;-58
2021/05/05 07:11:41;;;;;;;3.90;1.57;;;23.10;36.60;;;;;;5013218;28;20731;-58
2021/05/05 07:14:07;;;;;;;3.63;1.50;;;23.10;36.70;;;;;;5013602;28;20958;-58
2021/05/05 07:16:34;;;;;;;3.53;1.58;;;23.10;36.90;;;;;;5014729;28;20389;-58
2021/05/05 07:19:00;;;;;;;4.07;1.40;;;23.10;36.70;;;;;;5013442;28;20474;-58
2021/05/05 07:21:26;;;;;;;2.60;1.55;;;23.10;36.60;;;;;;5014182;28;20827;-59
2021/05/05 07:23:52;;;;;;;3.33;1.42;;;23.10;37.20;;;;;;5014665;28;20403;-58
2021/05/05 07:26:18;;;;;;;3.77;1.70;;;23.10;37.10;;;;;;5014615;28;20492;-58
2021/05/05 07:28:44;;;;;;;8.93;1.83;;;23.10;37.50;;;;;;5014358;28;20420;-58
2021/05/05 07:31:10;;;;;;;3.25;1.40;;;23.10;37.10;;;;;;5014214;28;20447;-58
2021/05/05 07:33:36;;;;;;;5.07;1.50;;;23.00;37.60;;;;;;5012827;28;20416;-58
2021/05/05 07:36:03;;;;;;;5.45;1.60;;;23.10;37.40;;;;;;5014305;28;20392;-58
2021/05/05 07:46:24;;;;;;;3.90;1.58;;;22.90;36.60;;;;;;5014370;28;20964;-58
2021/05/05 07:48:53;;;;;;;3.90;1.50;;;23.00;36.60;;;;;;5014185;28;20451;-59
2021/05/05 07:51:19;;;;;;;4.90;1.50;;;23.00;36.30;;;;;;5013793;28;20404;-59
2021/05/05 07:53:45;;;;;;;3.15;1.35;;;23.00;36.10;;;;;;5013681;28;20427;-59
2021/05/05 07:56:11;;;;;;;3.37;1.37;;;23.00;36.00;;;;;;5014075;28;20389;-59
2021/05/05 07:58:36;;;;;;;3.80;1.50;;;23.00;35.90;;;;;;5013650;28;20417;-59
2021/05/05 08:01:03;;;;;;;2.75;1.27;;;23.00;35.80;;;;;;5013909;28;20449;-59
2021/05/05 08:03:29;;;;;;;2.65;1.27;;;23.00;35.80;;;;;;5013356;28;20393;-58
2021/05/05 08:05:55;;;;;;;3.58;1.30;;;23.00;35.70;;;;;;5012471;28;20400;-58
2021/05/05 08:08:20;;;;;;;2.47;1.30;;;23.00;35.60;;;;;;5013900;28;20400;-59
2021/05/05 08:10:46;;;;;;;3.58;1.20;;;23.00;35.50;;;;;;5013571;28;20400;-59
2021/05/05 08:13:12;;;;;;;2.65;1.30;;;23.00;35.50;;;;;;5013577;28;20420;-59
2021/05/05 08:15:38;;;;;;;1.90;1.10;;;23.00;35.50;;;;;;5013227;28;20392;-58
2021/05/05 08:18:05;;;;;;;2.55;1.10;;;23.00;35.40;;;;;;5013617;28;20416;-59
2021/05/05 08:20:34;;;;;;;4.10;1.10;;;23.00;35.40;;;;;;5012235;28;20397;-58
2021/05/05 08:23:04;;;;;;;2.00;0.98;;;23.10;35.40;;;;;;5013385;28;20405;-60
2021/05/05 08:25:29;;;;;;;4.13;1.10;;;23.10;35.30;;;;;;5012576;28;20421;-59
2021/05/05 08:27:55;;;;;;;5.88;1.38;;;23.00;35.70;;;;;;5013278;28;20401;-59
2021/05/05 08:30:22;;;;;;;4.20;1.23;;;23.00;35.70;;;;;;5013298;28;20396;-58
2021/05/05 08:32:47;;;;;;;5.40;1.20;;;23.00;35.90;;;;;;5013073;28;20431;-59
2021/05/05 08:35:13;;;;;;;6.03;1.43;;;23.00;36.30;;;;;;5013235;28;20761;-59
2021/05/05 08:37:39;;;;;;;7.32;1.52;;;23.00;36.40;;;;;;5012713;28;20439;-58
2021/05/05 08:40:07;;;;;;;4.68;1.23;;;23.00;36.40;;;;;;5013129;28;20385;-59
2021/05/05 08:42:33;;;;;;;4.68;1.10;;;23.00;36.20;;;;;;5012541;28;20393;-58
2021/05/05 08:44:59;;;;;;;3.37;1.10;;;23.10;36.40;;;;;;5011838;28;20381;-58
2021/05/05 08:47:26;;;;;;;3.65;1.20;;;23.10;36.20;;;;;;5012560;28;20403;-58
2021/05/05 08:49:52;;;;;;;8.40;1.60;;;23.10;36.00;;;;;;5012958;28;20403;-58
2021/05/05 08:52:17;;;;;;;3.78;1.10;;;23.10;35.90;;;;;;5012829;28;20401;-58
2021/05/05 08:54:43;;;;;;;4.32;1.30;;;23.00;36.30;;;;;;5012809;28;20429;-58
2021/05/05 08:57:09;;;;;;;4.13;1.10;;;23.00;37.40;;;;;;5012981;28;20816;-58
2021/05/05 08:59:34;;;;;;;4.40;1.30;;;23.10;37.40;;;;;;5011225;28;20500;-58
2021/05/05 09:02:00;;;;;;;3.40;1.10;;;23.10;37.20;;;;;;5012856;28;20404;-57
2021/05/05 09:04:27;;;;;;;5.15;1.25;;;23.10;37.00;;;;;;5012534;28;20761;-57
2021/05/05 09:06:58;;;;;;;4.15;1.20;;;23.10;36.90;;;;;;5012550;28;20409;-69
2021/05/05 09:09:34;;;;;;;6.23;1.20;;;23.10;37.40;;;;;;5012347;28;20385;-59
2021/05/05 09:12:11;;;;;;;5.05;1.45;;;23.10;37.30;;;;;;5012909;28;20487;-59
2021/05/05 09:14:47;;;;;;;6.53;1.30;;;23.10;37.60;;;;;;5012549;28;20395;-58
2021/05/05 09:17:21;;;;;;;3.90;1.27;;;23.10;37.10;;;;;;5012557;28;20454;-58
2021/05/05 09:19:47;;;;;;;2.63;1.20;;;23.10;36.80;;;;;;5012081;28;20952;-58
2021/05/05 09:22:13;;;;;;;5.00;1.38;;;23.00;37.20;;;;;;5012437;28;20480;-58
2021/05/05 09:24:39;;;;;;;5.55;1.23;;;23.00;38.00;;;;;;5012320;28;20405;-58
2021/05/05 09:27:09;;;;;;;5.43;1.30;;;23.00;37.50;;;;;;5012287;28;20392;-58
2021/05/05 09:29:47;;;;;;;4.15;1.30;;;23.10;36.70;;;;;;5011718;28;20389;-59
2021/05/05 09:32:15;;;;;;;6.78;1.45;;;23.10;38.90;;;;;;5012418;28;20448;-59
2021/05/05 09:34:42;;;;;;;6.63;1.50;;;23.10;38.90;;;;;;5012186;28;20727;-59
2021/05/05 09:37:11;;;;;;;6.13;1.40;;;23.10;38.30;;;;;;5012227;28;20412;-60
2021/05/05 09:39:39;;;;;;;5.65;1.27;;;23.10;36.90;;;;;;5011605;28;20487;-59
2021/05/05 09:42:25;;;;;;;4.25;1.40;;;23.10;37.20;;;;;;5011948;28;20380;-58
2021/05/05 09:45:01;;;;;;;3.50;1.38;;;23.10;37.30;;;;;;5012297;28;20385;-58
2021/05/05 09:47:58;;;;;;;5.28;1.35;;;23.10;36.80;;;;;;5011519;28;20392;-59
2021/05/05 09:50:41;;;;;;;3.53;1.50;;;23.10;37.80;;;;;;5011806;28;20398;-59
2021/05/05 09:53:16;;;;;;;3.92;1.23;;;23.10;37.60;;;;;;5011790;28;20416;-59
2021/05/05 09:55:51;;;;;;;6.22;1.50;;;23.10;37.20;;;;;;5011148;28;20389;-59
2021/05/05 09:58:31;;;;;;;3.40;1.50;;;23.10;38.10;;;;;;5017926;28;20431;-58
2021/05/05 10:01:06;;;;;;;5.30;1.50;;;23.10;38.10;;;;;;5011843;28;20385;-58
2021/05/05 10:03:47;;;;;;;3.17;1.25;;;23.10;37.70;;;;;;5014112;28;20391;-59
2021/05/05 10:06:40;;;;;;;3.25;1.20;;;23.00;38.20;;;;;;5031467;28;20403;-59
2021/05/05 10:09:12;;;;;;;4.97;1.63;;;23.10;40.30;;;;;;5028525;28;20406;-59
2021/05/05 10:11:40;;;;;;;6.88;1.40;;;23.20;40.30;;;;;;5030299;28;20386;-59
2021/05/05 10:14:11;;;;;;;8.98;1.60;;;23.30;40.20;;;;;;5031393;28;20887;-59
2021/05/05 10:16:41;;;;;;;5.33;1.60;;;23.30;39.60;;;;;;5031113;28;21057;-58
2021/05/05 10:19:08;;;;;;;6.10;1.43;;;23.30;39.40;;;;;;5031250;28;20407;-58
2021/05/05 10:21:39;;;;;;;7.28;1.27;;;23.40;39.00;;;;;;5029610;28;20421;-58
2021/05/05 10:24:07;;;;;;;4.45;1.35;;;23.40;38.70;;;;;;5031422;28;20390;-59
2021/05/05 10:26:32;;;;;;;4.55;1.42;;;23.30;38.50;;;;;;5031222;28;20407;-59
2021/05/05 10:28:59;;;;;;;3.90;1.38;;;23.30;38.60;;;;;;5031280;28;20444;-59
2021/05/05 10:31:27;;;;;;;4.10;1.37;;;23.30;38.50;;;;;;5030958;28;20387;-59
2021/05/05 10:33:57;;;;;;;4.95;1.20;;;23.20;38.00;;;;;;5030816;28;20501;-59
2021/05/05 10:36:37;;;;;;;3.63;1.30;;;23.30;37.70;;;;;;5031098;28;20391;-59
2021/05/05 10:39:25;;;;;;;3.40;1.00;;;23.30;37.70;;;;;;5031165;28;20391;-58
2021/05/05 10:42:00;;;;;;;4.28;1.10;;;23.30;37.40;;;;;;5030819;28;20405;-59
2021/05/05 10:44:49;;;;;;;2.42;1.30;;;23.30;37.30;;;;;;5031092;28;20755;-59
2021/05/05 10:47:31;;;;;;;3.45;1.20;;;23.30;37.30;;;;;;5030881;28;20393;-59
2021/05/05 10:50:06;;;;;;;2.60;1.13;;;23.30;37.30;;;;;;5030789;28;20402;-59
2021/05/05 10:52:34;;;;;;;3.88;1.08;;;23.30;37.50;;;;;;5030829;28;20907;-59
2021/05/05 10:55:03;;;;;;;4.20;0.95;;;23.30;37.00;;;;;;5031129;28;20481;-59
2021/05/05 10:57:28;;;;;;;2.67;0.90;;;23.30;36.90;;;;;;5029399;28;20399;-59
2021/05/05 10:59:57;;;;;;;3.13;1.10;;;23.40;36.90;;;;;;5031143;28;20398;-58
2021/05/05 11:02:48;;;;;;;5.25;1.05;;;23.30;36.70;;;;;;5030656;28;20387;-58
2021/05/05 11:05:21;;;;;;;1.75;1.10;;;23.30;36.60;;;;;;5031116;28;20504;-61
2021/05/05 11:07:53;;;;;;;4.35;1.00;;;23.30;36.60;;;;;;5031572;28;20922;-59
2021/05/05 11:10:34;;;;;;;7.83;1.00;;;23.30;36.70;;;;;;5035024;28;20450;-60
2021/05/05 11:13:05;;;;;;;2.17;1.00;;;23.30;36.80;;;;;;5038135;28;20900;-60
2021/05/05 11:15:45;;;;;;;4.45;1.05;;;23.20;37.20;;;;;;5014543;28;20399;-59
2021/05/05 11:18:45;;;;;;;2.20;1.00;;;23.20;37.20;;;;;;5017030;28;20514;-64
2021/05/05 11:21:32;;;;;;;3.47;1.00;;;23.20;37.00;;;;;;5047559;28;20706;-61
2021/05/05 11:23:58;;;;;;;3.50;0.90;;;23.20;36.90;;;;;;5007913;28;20396;-63
2021/05/05 11:26:26;;;;;;;5.03;1.30;;;23.30;36.80;;;;;;5023354;28;20395;-60
2021/05/05 11:29:02;;;;;;;2.15;0.80;;;23.20;36.80;;;;;;5023964;28;20434;-61
2021/05/05 11:34:20;;;;;;;3.17;1.00;;;23.20;36.80;;;;;;5024286;28;20937;-60
2021/05/05 11:37:06;;;;;;;2.55;0.70;;;23.20;36.70;;;;;;5024054;28;20462;-60
2021/05/05 11:39:43;;;;;;;1.47;0.70;;;23.20;36.60;;;;;;5024040;28;20449;-59
2021/05/05 11:42:15;;;;;;;2.60;0.70;;;23.20;36.60;;;;;;5023879;28;20481;-59
2021/05/05 11:44:50;;;;;;;2.25;0.75;;;23.20;36.60;;;;;;5023531;28;20479;-60
2021/05/05 11:47:17;;;;;;;2.95;0.80;;;23.20;36.70;;;;;;5022930;28;20388;-60
2021/05/05 11:50:10;;;;;;;1.27;0.80;;;23.10;36.80;;;;;;5021110;28;20388;-60
2021/05/05 11:52:38;;;;;;;3.10;0.80;;;23.10;37.00;;;;;;5022037;28;20456;-60
2021/05/05 11:55:06;;;;;;;1.80;0.70;;;23.10;37.00;;;;;;5021273;28;20377;-60
2021/05/05 11:57:36;;;;;;;1.10;0.60;;;23.00;37.10;;;;;;5024085;28;20451;-59
2021/05/05 12:00:18;;;;;;;1.70;0.60;;;23.00;37.20;;;;;;5021498;28;20871;-60
2021/05/05 12:03:00;;;;;;;1.67;0.65;;;23.00;37.20;;;;;;5023541;28;20397;-60
2021/05/05 12:05:35;;;;;;;2.38;0.70;;;23.00;37.20;;;;;;5021248;28;20393;-60
2021/05/05 12:08:16;;;;;;;2.22;0.60;;;23.00;37.20;;;;;;5021356;28;20962;-59
2021/05/05 12:10:43;;;;;;;1.17;0.52;;;22.90;37.20;;;;;;5022948;28;20416;-59
2021/05/05 12:13:11;;;;;;;0.80;0.40;;;22.90;37.20;;;;;;5023076;28;20560;-60
2021/05/05 12:15:41;;;;;;;1.77;0.60;;;22.90;37.30;;;;;;5022113;28;20392;-59
2021/05/05 12:18:16;;;;;;;1.50;0.57;;;22.80;37.30;;;;;;5021130;28;20454;-59
2021/05/05 12:20:42;;;;;;;1.90;0.70;;;22.80;37.30;;;;;;5021414;28;20481;-59
2021/05/05 12:23:08;;;;;;;1.33;0.60;;;22.80;37.30;;;;;;5022690;28;20906;-63
2021/05/05 12:25:34;;;;;;;1.98;0.60;;;22.80;37.40;;;;;;5021116;28;20399;-60
2021/05/05 12:28:00;;;;;;;1.88;0.47;;;22.80;37.30;;;;;;5020281;28;20512;-60
2021/05/05 12:30:38;;;;;;;1.20;0.70;;;22.80;37.30;;;;;;5022547;28;20395;-60
2021/05/05 12:33:04;;;;;;;1.88;0.70;;;22.80;37.30;;;;;;5022828;28;20425;-59
2021/05/05 12:35:31;;;;;;;1.20;0.50;;;22.70;37.30;;;;;;5020982;28;20490;-60
2021/05/05 12:37:57;;;;;;;1.40;0.50;;;22.70;37.30;;;;;;5020929;28;20422;-60
2021/05/05 12:40:26;;;;;;;1.50;0.47;;;22.70;37.30;;;;;;5022171;28;20410;-59
2021/05/05 12:42:53;;;;;;;0.80;0.40;;;22.70;37.30;;;;;;5020826;28;20487;-59
2021/05/05 12:45:20;;;;;;;1.20;0.60;;;22.70;37.30;;;;;;5020544;28;20383;-60
2021/05/05 12:47:46;;;;;;;5.43;0.75;;;22.70;37.30;;;;;;5022259;28;20429;-62
2021/05/05 12:50:13;;;;;;;11.50;1.45;;;22.70;37.20;;;;;;5020837;28;20501;-59
2021/05/05 12:52:41;;;;;;;3.43;0.67;;;22.70;37.50;;;;;;5019611;28;20418;-64
2021/05/05 12:55:28;;;;;;;7.05;0.80;;;22.70;38.10;;;;;;5022535;28;20419;-64
2021/05/05 12:58:15;;;;;;;5.55;0.80;;;22.80;37.70;;;;;;5022337;28;20399;-60
2021/05/05 13:00:45;;;;;;;4.22;0.68;;;22.90;37.30;;;;;;5020853;28;20401;-59
2021/05/05 13:03:19;;;;;;;3.47;0.70;;;23.20;36.90;;;;;;5020615;28;20411;-59
2021/05/05 13:06:04;;;;;;;2.75;0.70;;;23.30;36.80;;;;;;5020366;28;20832;-59